createdAt,value
2022-11-26T00:04:44.765Z,7.27
2022-11-26T00:09:45.882Z,7.20
2022-11-26T00:14:47.258Z,7.14
2022-11-26T00:19:48.387Z,6.92
2022-11-26T00:24:49.613Z,6.82
2022-11-26T00:29:50.787Z,6.82
2022-11-26T00:34:51.967Z,6.85
2022-11-26T00:39:53.199Z,6.74
2022-11-26T00:44:54.354Z,6.72
2022-11-26T00:49:55.520Z,6.80
2022-11-26T00:54:56.709Z,6.84
2022-11-26T00:59:57.836Z,6.92
2022-11-26T01:04:59.058Z,6.99
2022-11-26T01:10:00.236Z,7.05
2022-11-26T01:15:01.357Z,7.05
2022-11-26T01:20:03.406Z,7.10
2022-11-26T01:25:04.623Z,7.13
2022-11-26T01:30:05.774Z,7.00
2022-11-26T01:35:06.954Z,6.86
2022-11-26T01:40:08.102Z,6.69
2022-11-26T01:45:09.271Z,6.71
2022-11-26T01:50:10.495Z,6.70
2022-11-26T01:55:11.691Z,6.53
2022-11-26T02:00:12.858Z,6.47
2022-11-26T02:05:14.010Z,6.32
2022-11-26T02:10:15.166Z,6.18
2022-11-26T02:15:16.385Z,6.10
2022-11-26T02:20:17.683Z,6.21
2022-11-26T02:25:18.880Z,6.29
2022-11-26T02:30:20.002Z,6.19
2022-11-26T02:35:21.174Z,6.01
2022-11-26T02:40:22.344Z,5.84
2022-11-26T02:45:23.629Z,5.70
2022-11-26T02:50:24.942Z,5.58
2022-11-26T02:55:26.146Z,5.46
2022-11-26T03:00:27.351Z,5.33
2022-11-26T03:05:28.590Z,5.26
2022-11-26T03:10:29.739Z,5.23
2022-11-26T03:15:30.872Z,5.20
2022-11-26T03:20:32.091Z,5.17
2022-11-26T03:25:33.247Z,5.17
2022-11-26T03:30:34.432Z,5.11
2022-11-26T03:35:35.606Z,5.05
2022-11-26T03:40:36.796Z,5.04
2022-11-26T03:45:38.040Z,5.00
2022-11-26T03:50:39.202Z,4.95
2022-11-26T03:55:40.327Z,4.90
2022-11-26T04:00:41.476Z,4.86
2022-11-26T04:05:42.655Z,4.83
2022-11-26T04:10:43.770Z,4.76
2022-11-26T04:15:44.967Z,4.67
2022-11-26T04:20:51.428Z,4.59
2022-11-26T04:25:54.089Z,4.55
2022-11-26T04:30:55.277Z,4.52
2022-11-26T04:35:56.405Z,4.44
2022-11-26T04:40:57.594Z,4.41
2022-11-26T04:45:58.772Z,4.36
2022-11-26T04:50:59.958Z,4.34
2022-11-26T04:56:01.179Z,4.26
2022-11-26T05:01:02.479Z,4.18
2022-11-26T05:06:03.808Z,4.16
2022-11-26T05:11:05.019Z,4.10
2022-11-26T05:16:06.249Z,4.03
2022-11-26T05:21:07.537Z,4.01
2022-11-26T05:26:08.749Z,3.99
2022-11-26T05:31:09.989Z,4.05
2022-11-26T05:36:11.114Z,4.09
2022-11-26T05:41:12.302Z,4.06
2022-11-26T05:46:13.496Z,4.08
2022-11-26T05:51:14.767Z,4.10
2022-11-26T05:56:16.070Z,4.09
2022-11-26T06:01:17.205Z,3.76
2022-11-26T06:06:18.343Z,4.05
2022-11-26T06:11:19.595Z,4.03
2022-11-26T06:16:20.878Z,3.98
2022-11-26T06:21:22.123Z,3.98
2022-11-26T06:26:23.323Z,3.96
2022-11-26T06:31:24.513Z,3.91
2022-11-26T06:36:25.808Z,3.86
2022-11-26T06:41:27.006Z,3.83
2022-11-26T06:46:28.407Z,3.79
2022-11-26T06:51:29.539Z,3.78
2022-11-26T06:56:30.663Z,3.76
2022-11-26T07:01:32.009Z,3.76
2022-11-26T07:06:33.420Z,3.79
2022-11-26T07:11:34.758Z,3.82
2022-11-26T07:16:36.048Z,3.84
2022-11-26T07:21:37.244Z,3.86
2022-11-26T07:26:38.454Z,3.93
2022-11-26T07:31:39.670Z,4.01
2022-11-26T07:36:43.363Z,4.10
2022-11-26T07:41:44.603Z,4.19
2022-11-26T07:46:45.806Z,4.23
2022-11-26T07:51:46.963Z,4.29
2022-11-26T07:56:48.200Z,4.40
2022-11-26T08:01:49.450Z,4.50
2022-11-26T08:06:50.614Z,4.59
2022-11-26T08:11:51.826Z,4.68
2022-11-26T08:16:53.049Z,4.78
2022-11-26T08:21:54.286Z,4.86
2022-11-26T08:26:55.601Z,4.91
2022-11-26T08:31:56.792Z,4.95
2022-11-26T08:36:58.029Z,5.02
2022-11-26T08:41:59.224Z,5.09
2022-11-26T08:47:00.380Z,5.18
2022-11-26T08:52:01.638Z,5.28
2022-11-26T08:57:02.909Z,5.38
2022-11-26T09:02:04.086Z,5.52
2022-11-26T09:07:05.291Z,5.72
2022-11-26T09:12:06.457Z,5.89
2022-11-26T09:17:07.718Z,6.07
2022-11-26T09:22:08.876Z,6.32
2022-11-26T09:27:10.118Z,6.62
2022-11-26T09:32:31.094Z,6.79
2022-11-26T09:37:32.528Z,6.80
2022-11-26T09:42:33.736Z,6.86
2022-11-26T09:47:34.862Z,7.12
2022-11-26T09:52:36.014Z,7.22
2022-11-26T09:57:37.242Z,7.36
2022-11-26T10:02:40.786Z,7.42
2022-11-26T10:07:42.263Z,7.67
2022-11-26T10:13:10.839Z,7.91
2022-11-26T10:18:04.686Z,8.43
2022-11-26T10:23:05.862Z,8.66
2022-11-26T10:28:07.014Z,8.85
2022-11-26T10:33:08.262Z,8.89
2022-11-26T10:38:09.391Z,8.85
2022-11-26T10:43:10.683Z,8.99
2022-11-26T10:48:11.840Z,9.07
2022-11-26T10:53:12.962Z,9.08
2022-11-26T10:58:14.104Z,9.00
2022-11-26T11:03:15.381Z,9.01
2022-11-26T11:08:16.640Z,9.13
2022-11-26T11:13:17.841Z,9.16
2022-11-26T11:18:19.383Z,9.32
2022-11-26T11:23:20.908Z,9.39
2022-11-26T11:28:22.112Z,9.31
2022-11-26T11:33:23.350Z,9.23
2022-11-26T11:38:24.555Z,9.21
2022-11-26T11:43:26.658Z,9.16
2022-11-26T11:48:27.840Z,9.21
2022-11-26T11:53:28.983Z,9.26
2022-11-26T11:58:30.176Z,9.37
2022-11-26T12:03:31.341Z,9.53
2022-11-26T12:08:32.479Z,9.59
2022-11-26T12:13:33.631Z,9.47
2022-11-26T12:18:34.869Z,9.41
2022-11-26T12:23:36.612Z,9.33
2022-11-26T12:28:37.781Z,9.31
2022-11-26T12:33:41.906Z,9.38
2022-11-26T12:38:43.105Z,9.47
2022-11-26T12:43:44.342Z,9.52
2022-11-26T12:48:45.470Z,9.53
2022-11-26T12:53:46.701Z,9.58
2022-11-26T12:58:47.892Z,9.61
2022-11-26T13:03:49.048Z,9.58
2022-11-26T13:08:50.225Z,9.57
2022-11-26T13:13:51.433Z,9.52
2022-11-26T13:18:52.597Z,9.40
2022-11-26T13:23:53.750Z,9.31
2022-11-26T13:28:54.957Z,9.22
2022-11-26T13:33:56.186Z,9.18
2022-11-26T13:38:57.395Z,9.10
2022-11-26T13:43:58.610Z,9.07
2022-11-26T13:48:59.865Z,9.01
2022-11-26T13:54:01.269Z,8.93
2022-11-26T13:59:02.435Z,8.86
2022-11-26T14:04:03.570Z,8.83
2022-11-26T14:09:05.647Z,8.86
2022-11-26T14:14:06.857Z,8.88
2022-11-26T14:19:08.042Z,8.91
2022-11-26T14:24:09.256Z,8.94
2022-11-26T14:29:10.444Z,8.91
2022-11-26T14:34:11.626Z,8.79
2022-11-26T14:39:12.988Z,8.65
2022-11-26T14:44:14.166Z,8.33
2022-11-26T14:49:15.307Z,8.09
2022-11-26T14:54:16.565Z,7.88
2022-11-26T14:59:17.887Z,7.71
2022-11-26T15:04:19.057Z,7.57
2022-11-26T15:09:21.656Z,7.42
2022-11-26T15:14:22.990Z,7.30
2022-11-26T15:19:24.241Z,7.18
2022-11-26T15:24:25.425Z,7.07
2022-11-26T15:29:26.589Z,6.99
2022-11-26T15:34:27.717Z,6.94
2022-11-26T15:39:28.905Z,6.91
2022-11-26T15:44:30.098Z,6.85
2022-11-26T15:49:31.294Z,6.82
2022-11-26T15:54:49.644Z,6.79
2022-11-26T15:59:53.776Z,6.75
2022-11-26T16:04:55.177Z,6.73
2022-11-26T16:09:56.323Z,6.71
2022-11-26T16:14:57.573Z,6.70
2022-11-26T16:20:01.770Z,6.72
2022-11-26T16:25:03.935Z,6.74
2022-11-26T16:30:05.153Z,6.74
2022-11-26T16:35:29.949Z,6.74
2022-11-26T16:40:27.683Z,6.67
2022-11-26T16:45:28.965Z,6.63
2022-11-26T16:50:30.226Z,6.58
2022-11-26T16:55:31.425Z,6.52
2022-11-26T17:00:32.770Z,6.45
2022-11-26T17:05:33.942Z,6.41
2022-11-26T17:10:35.070Z,6.35
2022-11-26T17:15:36.231Z,6.27
2022-11-26T17:20:37.349Z,6.19
2022-11-26T17:25:38.466Z,6.14
2022-11-26T17:30:39.750Z,6.06
2022-11-26T17:35:41.027Z,5.96
2022-11-26T17:40:42.224Z,5.89
2022-11-26T17:45:44.508Z,5.83
2022-11-26T17:50:45.766Z,5.79
2022-11-26T17:55:47.128Z,5.76
2022-11-26T18:00:48.721Z,5.71
2022-11-26T18:05:49.909Z,5.72
2022-11-26T18:10:51.047Z,5.66
2022-11-26T18:15:52.249Z,5.59
2022-11-26T18:20:53.404Z,5.50
2022-11-26T18:25:54.602Z,5.42
2022-11-26T18:30:55.860Z,5.35
2022-11-26T18:35:57.065Z,5.31
2022-11-26T18:40:58.244Z,5.31
2022-11-26T18:45:59.542Z,5.32
2022-11-26T18:51:00.711Z,5.30
2022-11-26T18:56:01.909Z,5.26
2022-11-26T19:01:03.135Z,5.23
2022-11-26T19:06:04.330Z,5.22
2022-11-26T19:11:05.525Z,5.21
2022-11-26T19:16:09.229Z,5.17
2022-11-26T19:21:14.181Z,5.17
2022-11-26T19:26:15.370Z,5.13
2022-11-26T19:31:16.635Z,5.11
2022-11-26T19:36:17.958Z,5.09
2022-11-26T19:41:24.069Z,5.03
2022-11-26T19:46:26.783Z,5.02
2022-11-26T19:51:28.002Z,4.93
2022-11-26T19:56:29.272Z,4.93
2022-11-26T20:01:30.760Z,4.89
2022-11-26T20:06:32.411Z,4.86
2022-11-26T20:11:33.821Z,4.79
2022-11-26T20:16:35.022Z,4.71
2022-11-26T20:21:36.397Z,4.65
2022-11-26T20:26:37.677Z,4.60
2022-11-26T20:31:38.830Z,4.57
2022-11-26T20:36:40.025Z,4.52
2022-11-26T20:41:41.163Z,4.46
2022-11-26T20:46:42.428Z,4.39
2022-11-26T20:51:43.578Z,4.36
2022-11-26T20:56:44.699Z,4.40
2022-11-26T21:01:46.009Z,4.44
2022-11-26T21:06:47.214Z,4.46
2022-11-26T21:11:48.461Z,4.45
2022-11-26T21:16:49.686Z,4.45
2022-11-26T21:21:50.960Z,4.41
2022-11-26T21:26:52.175Z,4.35
2022-11-26T21:31:53.332Z,4.30
2022-11-26T21:36:54.698Z,4.25
2022-11-26T21:41:55.899Z,4.21
2022-11-26T21:46:57.233Z,4.22
2022-11-26T21:51:58.405Z,4.22
2022-11-26T21:56:59.733Z,4.17
2022-11-26T22:02:01.043Z,4.15
2022-11-26T22:07:02.301Z,4.15
2022-11-26T22:12:03.423Z,4.16
2022-11-26T22:17:04.613Z,4.13
2022-11-26T22:22:05.769Z,4.13
2022-11-26T22:27:07.016Z,4.13
2022-11-26T22:32:08.146Z,4.10
2022-11-26T22:37:09.311Z,4.09
2022-11-26T22:42:10.453Z,4.09
2022-11-26T22:47:11.648Z,4.03
2022-11-26T22:52:13.136Z,4.01
2022-11-26T22:57:14.255Z,4.04
2022-11-26T23:02:15.466Z,4.03
2022-11-26T23:07:16.740Z,4.02
2022-11-26T23:12:17.964Z,4.01
2022-11-26T23:17:19.141Z,4.01
2022-11-26T23:22:20.341Z,4.04
2022-11-26T23:27:21.509Z,4.07
2022-11-26T23:32:22.634Z,4.04
2022-11-26T23:37:23.919Z,4.04
2022-11-26T23:42:25.086Z,4.02
2022-11-26T23:47:26.319Z,4.06
2022-11-26T23:52:27.488Z,4.07
2022-11-26T23:57:28.658Z,4.09
